createdAt,value
2019-04-28T00:00:38.552Z,11.06
2019-04-28T00:03:13.215Z,11.06
2019-04-28T00:05:46.970Z,11.20
2019-04-28T00:08:20.869Z,10.91
2019-04-28T00:10:54.649Z,11.22
2019-04-28T00:13:28.343Z,11.22
2019-04-28T00:16:02.041Z,11.31
2019-04-28T00:18:35.758Z,11.35
2019-04-28T00:21:10.958Z,11.31
2019-04-28T00:23:44.838Z,11.22
2019-04-28T00:26:18.530Z,11.22
2019-04-28T00:28:52.242Z,10.94
2019-04-28T00:31:25.956Z,10.94
2019-04-28T00:34:01.306Z,11.07
2019-04-28T00:36:35.249Z,11.07
2019-04-28T00:39:10.995Z,11.09
2019-04-28T00:41:44.366Z,11.17
2019-04-28T00:44:18.072Z,11.09
2019-04-28T00:46:51.776Z,11.10
2019-04-28T00:49:25.539Z,10.99
2019-04-28T00:52:00.696Z,11.02
2019-04-28T00:54:34.707Z,11.00
2019-04-28T00:57:08.490Z,10.93
2019-04-28T00:59:54.132Z,10.90
2019-04-28T01:02:17.748Z,10.90
2019-04-28T01:04:51.548Z,10.74
2019-04-28T01:07:25.341Z,10.51
2019-04-28T01:09:59.041Z,10.66
2019-04-28T01:12:32.997Z,10.66
2019-04-28T01:15:07.153Z,10.66
2019-04-28T01:17:40.849Z,10.66
2019-04-28T01:20:14.553Z,10.78
2019-04-28T01:22:49.672Z,10.78
2019-04-28T01:25:23.451Z,10.76
2019-04-28T01:28:00.095Z,10.68
2019-04-28T01:30:33.712Z,10.84
2019-04-28T01:33:07.420Z,10.73
2019-04-28T01:35:41.109Z,10.73
2019-04-28T01:38:15.287Z,10.48
2019-04-28T01:40:49.959Z,10.48
2019-04-28T01:43:23.776Z,9.96
2019-04-28T01:45:57.485Z,9.97
2019-04-28T01:48:31.521Z,10.20
2019-04-28T01:51:05.850Z,10.34
2019-04-28T01:53:40.067Z,10.30
2019-04-28T01:56:14.635Z,10.30
2019-04-28T01:58:49.972Z,10.13
2019-04-28T02:01:24.440Z,10.13
2019-04-28T02:04:00.114Z,10.05
2019-04-28T02:06:33.564Z,10.08
2019-04-28T02:09:07.277Z,10.07
2019-04-28T02:11:41.193Z,10.07
2019-04-28T02:14:15.244Z,10.06
2019-04-28T02:16:50.415Z,10.06
2019-04-28T02:19:24.228Z,9.74
2019-04-28T02:21:59.480Z,9.74
2019-04-28T02:24:33.317Z,9.77
2019-04-28T02:27:07.092Z,10.13
2019-04-28T02:29:41.719Z,10.27
2019-04-28T02:32:15.872Z,10.49
2019-04-28T02:34:50.713Z,10.49
2019-04-28T02:37:24.657Z,10.65
2019-04-28T02:40:00.523Z,10.65
2019-04-28T02:42:33.772Z,10.62
2019-04-28T02:45:07.480Z,10.70
2019-04-28T02:47:42.052Z,10.73
2019-04-28T02:50:16.068Z,10.74
2019-04-28T02:52:51.874Z,10.54
2019-04-28T02:55:25.190Z,10.54
2019-04-28T02:58:01.472Z,10.50
2019-04-28T03:00:34.301Z,10.77
2019-04-28T03:03:08.022Z,10.56
2019-04-28T03:05:41.735Z,10.56
2019-04-28T03:08:15.455Z,10.69
2019-04-28T03:10:50.934Z,10.74
2019-04-28T03:13:24.577Z,10.78
2019-04-28T03:16:01.164Z,10.78
2019-04-28T03:18:33.738Z,10.93
2019-04-28T03:21:07.452Z,10.61
2019-04-28T03:23:41.188Z,10.74
2019-04-28T03:26:14.939Z,10.74
2019-04-28T03:28:50.681Z,10.73
2019-04-28T03:31:57.539Z,10.56
2019-04-28T03:34:03.394Z,10.53
2019-04-28T03:36:34.887Z,10.53
2019-04-28T03:39:11.047Z,10.42
2019-04-28T03:41:44.934Z,10.64
2019-04-28T03:44:20.848Z,10.65
2019-04-28T03:46:54.052Z,10.61
2019-04-28T03:49:27.772Z,10.63
2019-04-28T03:52:02.409Z,10.63
2019-04-28T03:54:36.101Z,10.69
2019-04-28T03:57:11.316Z,10.69
2019-04-28T03:59:45.392Z,10.77
2019-04-28T04:02:21.119Z,10.82
2019-04-28T04:04:54.493Z,10.65
2019-04-28T04:07:30.881Z,10.65
2019-04-28T04:10:05.459Z,10.73
2019-04-28T04:12:41.227Z,10.75
2019-04-28T04:15:21.435Z,10.81
2019-04-28T04:17:55.178Z,10.87
2019-04-28T04:20:31.052Z,10.87
2019-04-28T04:23:04.412Z,10.84
2019-04-28T04:25:38.118Z,10.84
2019-04-28T04:28:11.837Z,10.89
2019-04-28T04:30:45.541Z,10.96
2019-04-28T04:33:20.788Z,11.11
2019-04-28T04:35:54.740Z,11.00
2019-04-28T04:38:30.957Z,11.00
2019-04-28T04:41:03.839Z,11.10
2019-04-28T04:43:37.530Z,11.16
2019-04-28T04:46:14.316Z,11.06
2019-04-28T04:48:46.718Z,11.06
2019-04-28T04:51:21.274Z,11.16
2019-04-28T04:53:55.537Z,11.16
2019-04-28T04:56:30.214Z,11.18
2019-04-28T04:59:04.139Z,11.18
2019-04-28T05:01:40.446Z,11.11
2019-04-28T05:04:13.445Z,11.05
2019-04-28T05:06:47.149Z,11.23
2019-04-28T05:09:20.875Z,11.23
2019-04-28T05:11:54.572Z,11.30
2019-04-28T05:14:29.890Z,11.30
2019-04-28T05:17:03.706Z,11.32
2019-04-28T05:19:37.408Z,11.32
2019-04-28T05:22:11.226Z,11.47
2019-04-28T05:24:46.307Z,11.58
2019-04-28T05:27:24.043Z,11.60
2019-04-28T05:29:57.001Z,11.59
2019-04-28T05:32:42.442Z,11.59
2019-04-28T05:35:06.693Z,11.64
2019-04-28T05:37:40.606Z,11.59
2019-04-28T05:40:14.302Z,11.66
2019-04-28T05:42:49.341Z,11.66
2019-04-28T05:45:23.507Z,11.65
2019-04-28T05:47:59.442Z,11.65
2019-04-28T05:50:33.753Z,11.68
2019-04-28T05:53:07.456Z,11.68
2019-04-28T05:55:41.885Z,11.91
2019-04-28T05:58:15.790Z,11.98
2019-04-28T06:00:49.909Z,11.98
2019-04-28T06:03:23.770Z,12.12
2019-04-28T06:05:57.477Z,12.28
2019-04-28T06:08:31.291Z,12.28
2019-04-28T06:11:04.982Z,12.05
2019-04-28T06:13:40.132Z,12.03
2019-04-28T06:16:14.001Z,12.14
2019-04-28T06:18:49.972Z,11.96
2019-04-28T06:21:23.232Z,12.08
2019-04-28T06:23:57.167Z,12.15
2019-04-28T06:26:30.877Z,12.24
2019-04-28T06:29:04.586Z,12.24
2019-04-28T06:31:38.292Z,12.20
2019-04-28T06:34:12.048Z,12.23
2019-04-28T06:36:45.758Z,12.09
2019-04-28T06:39:19.469Z,12.17
2019-04-28T06:41:53.191Z,12.49
2019-04-28T06:44:26.908Z,12.49
2019-04-28T06:47:00.619Z,12.49
2019-04-28T06:49:34.964Z,12.60
2019-04-28T06:52:08.702Z,12.64
2019-04-28T06:54:42.499Z,12.57
2019-04-28T06:57:16.451Z,12.57
2019-04-28T06:59:50.214Z,12.80
2019-04-28T07:02:23.939Z,12.47
2019-04-28T07:05:02.250Z,12.47
2019-04-28T07:07:33.229Z,12.71
2019-04-28T07:10:06.930Z,12.71
2019-04-28T07:12:40.620Z,12.88
2019-04-28T07:15:14.391Z,12.84
2019-04-28T07:17:48.127Z,12.70
2019-04-28T07:20:21.827Z,12.70
2019-04-28T07:22:55.619Z,12.98
2019-04-28T07:25:29.313Z,13.16
2019-04-28T07:28:03.576Z,13.16
2019-04-28T07:30:37.270Z,13.32
2019-04-28T07:33:10.995Z,13.37
2019-04-28T07:35:44.717Z,13.38
2019-04-28T07:38:18.506Z,13.36
2019-04-28T07:40:52.259Z,12.79
2019-04-28T07:43:25.990Z,13.07
2019-04-28T07:45:59.721Z,13.00
2019-04-28T07:48:33.443Z,13.00
2019-04-28T07:51:07.164Z,12.98
2019-04-28T07:53:40.895Z,12.98
2019-04-28T07:56:14.607Z,13.14
2019-04-28T07:58:48.314Z,13.12
2019-04-28T08:01:22.039Z,13.26
2019-04-28T08:03:57.543Z,12.93
2019-04-28T08:06:31.160Z,12.64
2019-04-28T08:09:05.954Z,12.64
2019-04-28T08:11:39.703Z,12.88
2019-04-28T08:14:13.421Z,13.36
2019-04-28T08:16:47.124Z,13.36
2019-04-28T08:19:20.820Z,12.99
2019-04-28T08:21:54.616Z,12.96
2019-04-28T08:24:28.337Z,12.96
2019-04-28T08:27:02.071Z,12.63
2019-04-28T08:29:35.820Z,12.63
2019-04-28T08:32:09.603Z,13.07
2019-04-28T08:34:43.334Z,13.07
2019-04-28T08:37:17.088Z,12.96
2019-04-28T08:39:50.785Z,12.96
2019-04-28T08:42:24.507Z,13.49
2019-04-28T08:44:58.378Z,13.49
2019-04-28T08:47:32.182Z,13.74
2019-04-28T08:50:06.017Z,13.74
2019-04-28T08:52:39.804Z,13.83
2019-04-28T08:55:13.523Z,14.03
2019-04-28T08:57:47.234Z,14.10
2019-04-28T09:00:21.132Z,14.10
2019-04-28T09:02:54.918Z,13.88
2019-04-28T09:05:28.706Z,14.02
2019-04-28T09:08:02.428Z,14.25
2019-04-28T09:10:36.142Z,14.25
2019-04-28T09:13:09.871Z,14.55
2019-04-28T09:15:43.659Z,14.69
2019-04-28T09:18:17.386Z,14.69
2019-04-28T09:20:51.157Z,14.70
2019-04-28T09:23:24.901Z,14.70
2019-04-28T09:25:58.615Z,14.64
2019-04-28T09:28:32.356Z,14.64
2019-04-28T09:31:06.060Z,14.61
2019-04-28T09:33:39.787Z,14.49
2019-04-28T09:36:13.491Z,14.61
2019-04-28T09:38:47.218Z,14.86
2019-04-28T09:41:20.926Z,15.12
2019-04-28T09:43:54.633Z,15.12
2019-04-28T09:46:28.341Z,15.11
2019-04-28T09:49:02.081Z,15.04
2019-04-28T09:51:35.794Z,15.26
2019-04-28T09:54:09.507Z,15.10
2019-04-28T09:56:55.759Z,15.10
2019-04-28T09:59:18.673Z,15.07
2019-04-28T10:01:52.414Z,15.07
2019-04-28T10:04:26.124Z,15.02
2019-04-28T10:06:59.846Z,15.02
2019-04-28T10:09:33.540Z,14.84
2019-04-28T10:12:07.248Z,15.21
2019-04-28T10:14:41.020Z,14.84
2019-04-28T10:17:14.748Z,14.85
2019-04-28T10:19:48.469Z,15.13
2019-04-28T10:22:22.253Z,15.40
2019-04-28T10:24:55.952Z,15.40
2019-04-28T10:27:29.658Z,15.31
2019-04-28T10:30:06.126Z,15.47
2019-04-28T10:32:39.811Z,15.47
2019-04-28T10:35:13.891Z,15.95
2019-04-28T10:37:47.605Z,15.69
2019-04-28T10:40:36.024Z,15.64
2019-04-28T10:43:09.718Z,15.46
2019-04-28T10:45:43.432Z,15.46
2019-04-28T10:48:17.145Z,14.86
2019-04-28T10:50:50.925Z,15.17
2019-04-28T10:53:25.075Z,15.17
2019-04-28T10:55:58.806Z,15.51
2019-04-28T10:58:32.545Z,15.51
2019-04-28T11:01:06.254Z,15.96
2019-04-28T11:03:39.927Z,16.01
2019-04-28T11:06:13.876Z,16.01
2019-04-28T11:08:47.628Z,16.65
2019-04-28T11:11:21.499Z,16.65
2019-04-28T11:13:55.229Z,15.91
2019-04-28T11:16:32.062Z,16.21
2019-04-28T11:19:05.981Z,16.21
2019-04-28T11:21:41.325Z,16.61
2019-04-28T11:24:15.514Z,16.90
2019-04-28T11:26:53.041Z,16.76
2019-04-28T11:29:26.973Z,16.63
2019-04-28T11:32:00.727Z,16.04
2019-04-28T11:34:34.461Z,16.13
2019-04-28T11:37:09.801Z,15.59
2019-04-28T11:39:43.669Z,15.59
2019-04-28T11:42:17.396Z,15.42
2019-04-28T11:44:51.126Z,15.60
2019-04-28T11:47:26.560Z,15.28
2019-04-28T11:50:00.269Z,15.28
2019-04-28T11:52:33.999Z,14.65
2019-04-28T11:55:07.853Z,14.64
2019-04-28T11:57:41.583Z,15.34
2019-04-28T12:00:16.981Z,15.57
2019-04-28T12:02:50.736Z,15.73
2019-04-28T12:05:34.038Z,15.73
2019-04-28T12:07:59.867Z,16.40
2019-04-28T12:10:33.560Z,16.72
2019-04-28T12:13:07.287Z,16.93
2019-04-28T12:15:40.995Z,16.93
2019-04-28T12:18:14.714Z,17.15
2019-04-28T12:20:48.424Z,17.20
2019-04-28T12:23:22.104Z,17.23
2019-04-28T12:25:55.822Z,17.23
2019-04-28T12:28:29.585Z,17.07
2019-04-28T12:31:03.292Z,17.31
2019-04-28T12:33:37.009Z,17.07
2019-04-28T12:36:10.785Z,17.12
2019-04-28T12:38:44.487Z,17.12
2019-04-28T12:41:18.204Z,17.55
2019-04-28T12:43:51.930Z,17.49
2019-04-28T12:46:25.662Z,17.49
2019-04-28T12:48:59.381Z,17.70
2019-04-28T12:51:33.102Z,17.81
2019-04-28T12:54:06.815Z,17.71
2019-04-28T12:56:40.540Z,17.67
2019-04-28T12:59:14.228Z,17.43
2019-04-28T13:01:48.009Z,17.28
2019-04-28T13:04:21.721Z,17.28
2019-04-28T13:06:55.428Z,16.97
2019-04-28T13:09:29.177Z,16.66
2019-04-28T13:12:03.191Z,16.62
2019-04-28T13:14:36.901Z,16.57
2019-04-28T13:17:10.671Z,16.34
2019-04-28T13:19:44.413Z,16.29
2019-04-28T13:22:18.133Z,16.49
2019-04-28T13:24:51.857Z,16.67
2019-04-28T13:27:25.586Z,16.67
2019-04-28T13:29:59.339Z,16.59
2019-04-28T13:32:33.100Z,16.59
2019-04-28T13:35:06.848Z,16.58
2019-04-28T13:37:40.572Z,16.64
2019-04-28T13:40:16.062Z,16.67
2019-04-28T13:42:49.861Z,16.76
2019-04-28T13:45:23.555Z,16.76
2019-04-28T13:47:57.338Z,17.43
2019-04-28T13:50:31.060Z,17.43
2019-04-28T13:53:06.054Z,17.94
2019-04-28T13:55:40.444Z,18.04
2019-04-28T13:58:14.257Z,18.04
2019-04-28T14:00:48.053Z,18.11
2019-04-28T14:03:21.841Z,17.88
2019-04-28T14:05:55.530Z,17.70
2019-04-28T14:08:29.256Z,17.70
2019-04-28T14:11:03.014Z,17.80
2019-04-28T14:13:36.750Z,17.58
2019-04-28T14:16:10.442Z,17.48
2019-04-28T14:18:44.156Z,17.59
2019-04-28T14:21:17.898Z,17.59
2019-04-28T14:23:51.609Z,17.51
2019-04-28T14:26:25.487Z,17.51
2019-04-28T14:28:59.278Z,17.58
2019-04-28T14:31:33.045Z,17.70
2019-04-28T14:34:06.792Z,17.70
2019-04-28T14:36:42.390Z,17.86
2019-04-28T14:39:16.032Z,17.85
2019-04-28T14:41:49.731Z,17.85
2019-04-28T14:44:23.477Z,17.85
2019-04-28T14:46:57.177Z,17.87
2019-04-28T14:49:30.893Z,17.91
2019-04-28T14:52:04.620Z,17.96
2019-04-28T14:54:38.321Z,18.22
2019-04-28T14:57:12.050Z,18.67
2019-04-28T14:59:47.446Z,18.71
2019-04-28T15:02:21.216Z,18.71
2019-04-28T15:04:54.951Z,19.67
2019-04-28T15:07:28.624Z,19.67
2019-04-28T15:10:04.330Z,19.71
2019-04-28T15:12:38.073Z,19.46
2019-04-28T15:15:12.044Z,19.56
2019-04-28T15:17:45.833Z,19.30
2019-04-28T15:20:19.562Z,19.08
2019-04-28T15:22:53.249Z,19.08
2019-04-28T15:25:26.955Z,18.78
2019-04-28T15:28:00.665Z,18.61
2019-04-28T15:30:34.399Z,18.61
2019-04-28T15:33:08.266Z,18.31
2019-04-28T15:35:42.024Z,18.03
2019-04-28T15:38:15.697Z,18.03
2019-04-28T15:40:49.469Z,18.06
2019-04-28T15:43:23.166Z,17.99
2019-04-28T15:45:56.851Z,17.79
2019-04-28T15:48:30.559Z,17.79
2019-04-28T15:51:04.222Z,17.73
2019-04-28T15:53:37.942Z,17.52
2019-04-28T15:56:11.649Z,17.05
2019-04-28T15:58:45.356Z,17.16
2019-04-28T16:01:19.065Z,17.16
2019-04-28T16:03:52.766Z,17.36
2019-04-28T16:06:26.479Z,17.40
2019-04-28T16:09:00.209Z,17.33
2019-04-28T16:11:33.954Z,17.17
2019-04-28T16:14:07.685Z,17.30
2019-04-28T16:16:41.386Z,17.38
2019-04-28T16:19:15.104Z,17.65
2019-04-28T16:21:48.784Z,17.71
2019-04-28T16:24:22.519Z,16.96
2019-04-28T16:26:56.221Z,16.56
2019-04-28T16:29:31.548Z,16.56
2019-04-28T16:32:05.273Z,16.05
2019-04-28T16:34:38.966Z,15.56
2019-04-28T16:37:13.118Z,15.56
2019-04-28T16:39:46.848Z,15.80
2019-04-28T16:42:31.527Z,15.78
2019-04-28T16:45:13.861Z,15.78
2019-04-28T16:47:45.073Z,15.97
2019-04-28T16:50:18.800Z,15.73
2019-04-28T16:52:52.513Z,15.73
2019-04-28T16:55:26.331Z,15.75
2019-04-28T16:58:00.084Z,15.91
2019-04-28T17:00:33.881Z,15.85
2019-04-28T17:03:07.617Z,15.98
2019-04-28T17:05:41.408Z,15.88
2019-04-28T17:08:15.139Z,15.88
2019-04-28T17:10:48.842Z,16.42
2019-04-28T17:13:22.574Z,16.55
2019-04-28T17:15:56.434Z,16.65
2019-04-28T17:18:30.179Z,16.77
2019-04-28T17:21:03.895Z,16.48
2019-04-28T17:23:37.618Z,16.48
2019-04-28T17:26:11.467Z,16.53
2019-04-28T17:28:45.347Z,16.65
2019-04-28T17:31:19.144Z,15.98
2019-04-28T17:33:52.877Z,16.14
2019-04-28T17:36:26.647Z,16.34
2019-04-28T17:39:00.387Z,15.65
2019-04-28T17:41:34.131Z,15.65
2019-04-28T17:44:08.083Z,15.94
2019-04-28T17:46:42.019Z,16.09
2019-04-28T17:49:15.810Z,15.96
2019-04-28T17:51:49.541Z,15.96
2019-04-28T17:54:23.288Z,15.77
2019-04-28T17:56:57.396Z,15.56
2019-04-28T17:59:31.203Z,15.56
2019-04-28T18:02:04.918Z,15.08
2019-04-28T18:04:38.730Z,15.08
2019-04-28T18:07:13.648Z,15.37
2019-04-28T18:09:47.504Z,15.51
2019-04-28T18:12:21.233Z,15.63
2019-04-28T18:14:54.977Z,15.65
2019-04-28T18:17:28.902Z,15.65
2019-04-28T18:20:03.504Z,15.53
2019-04-28T18:22:37.315Z,15.53
2019-04-28T18:25:11.056Z,14.95
2019-04-28T18:27:44.791Z,14.55
2019-04-28T18:30:18.604Z,14.41
2019-04-28T18:32:52.343Z,14.51
2019-04-28T18:35:26.129Z,14.51
2019-04-28T18:37:59.872Z,14.52
2019-04-28T18:40:33.609Z,14.08
2019-04-28T18:43:07.542Z,14.08
2019-04-28T18:45:41.274Z,14.22
2019-04-28T18:48:15.013Z,14.31
2019-04-28T18:50:48.770Z,14.02
2019-04-28T18:53:22.509Z,13.96
2019-04-28T18:55:56.254Z,14.08
2019-04-28T18:58:29.982Z,14.25
2019-04-28T19:01:03.727Z,14.16
2019-04-28T19:03:37.478Z,14.16
2019-04-28T19:06:11.198Z,14.09
2019-04-28T19:08:49.402Z,13.82
2019-04-28T19:11:20.363Z,13.82
2019-04-28T19:13:54.058Z,13.86
2019-04-28T19:16:28.028Z,13.87
2019-04-28T19:19:03.781Z,13.87
2019-04-28T19:21:37.500Z,13.50
2019-04-28T19:24:11.247Z,13.50
2019-04-28T19:26:44.976Z,13.26
2019-04-28T19:29:18.751Z,13.26
2019-04-28T19:31:52.494Z,13.47
2019-04-28T19:34:26.290Z,13.64
2019-04-28T19:37:00.158Z,13.64
2019-04-28T19:39:34.037Z,13.61
2019-04-28T19:42:07.788Z,13.61
2019-04-28T19:44:41.534Z,13.56
2019-04-28T19:47:15.281Z,13.56
2019-04-28T19:49:49.004Z,13.50
2019-04-28T19:52:22.762Z,13.40
2019-04-28T19:54:56.552Z,13.29
2019-04-28T19:57:30.277Z,13.27
2019-04-28T20:00:05.469Z,13.20
2019-04-28T20:02:39.262Z,13.12
2019-04-28T20:05:13.100Z,13.12
2019-04-28T20:07:46.856Z,12.88
2019-04-28T20:10:20.585Z,12.88
2019-04-28T20:12:54.286Z,12.84
2019-04-28T20:15:28.115Z,12.72
2019-04-28T20:18:01.967Z,12.71
2019-04-28T20:20:35.875Z,12.67
2019-04-28T20:23:09.606Z,12.67
2019-04-28T20:25:43.526Z,12.57
2019-04-28T20:28:17.321Z,12.52
2019-04-28T20:30:51.056Z,12.53
2019-04-28T20:33:24.771Z,12.48
2019-04-28T20:35:58.519Z,12.48
2019-04-28T20:38:32.405Z,12.44
2019-04-28T20:41:06.124Z,12.30
2019-04-28T20:43:39.987Z,12.30
2019-04-28T20:46:13.728Z,12.12
2019-04-28T20:48:47.448Z,12.05
2019-04-28T20:51:21.339Z,12.07
2019-04-28T20:53:55.074Z,12.07
2019-04-28T20:56:28.893Z,12.06
2019-04-28T20:59:02.629Z,11.98
2019-04-28T21:01:36.305Z,11.92
2019-04-28T21:04:10.115Z,11.86
2019-04-28T21:06:43.846Z,11.86
2019-04-28T21:09:17.543Z,11.78
2019-04-28T21:11:51.326Z,11.75
2019-04-28T21:14:25.052Z,11.67
2019-04-28T21:16:58.757Z,11.71
2019-04-28T21:19:32.483Z,11.71
2019-04-28T21:22:06.256Z,11.65
2019-04-28T21:24:39.983Z,11.64
2019-04-28T21:27:13.697Z,11.58
2019-04-28T21:29:47.414Z,11.50
2019-04-28T21:32:21.111Z,11.50
2019-04-28T21:34:54.819Z,10.30
2019-04-28T21:37:28.528Z,10.30
2019-04-28T21:40:02.247Z,10.46
2019-04-28T21:42:36.030Z,11.00
2019-04-28T21:45:09.692Z,10.97
2019-04-28T21:47:43.416Z,10.97
2019-04-28T21:50:17.135Z,11.05
2019-04-28T21:52:51.321Z,11.05
2019-04-28T21:55:25.033Z,11.05
2019-04-28T21:57:58.747Z,11.11
2019-04-28T22:00:41.005Z,10.99
2019-04-28T22:03:14.709Z,10.85
2019-04-28T22:05:48.809Z,10.78
2019-04-28T22:08:22.712Z,10.82
2019-04-28T22:10:56.439Z,10.82
2019-04-28T22:13:30.138Z,10.90
2019-04-28T22:16:03.849Z,10.86
2019-04-28T22:18:37.574Z,10.84
2019-04-28T22:21:11.279Z,10.84
2019-04-28T22:23:44.992Z,10.68
2019-04-28T22:26:18.707Z,10.78
2019-04-28T22:28:52.418Z,10.75
2019-04-28T22:31:26.143Z,10.75
2019-04-28T22:33:59.880Z,10.72
2019-04-28T22:36:33.668Z,10.68
2019-04-28T22:39:07.394Z,10.62
2019-04-28T22:41:41.096Z,10.61
2019-04-28T22:44:14.843Z,10.61
2019-04-28T22:46:48.891Z,10.52
2019-04-28T22:49:22.603Z,10.52
2019-04-28T22:51:56.322Z,10.51
2019-04-28T22:54:30.030Z,10.42
2019-04-28T22:57:03.755Z,10.42
2019-04-28T22:59:37.473Z,9.67
2019-04-28T23:02:11.210Z,9.67
2019-04-28T23:04:44.956Z,10.08
2019-04-28T23:07:18.658Z,10.11
2019-04-28T23:09:52.331Z,10.14
2019-04-28T23:12:26.062Z,10.14
2019-04-28T23:14:59.783Z,9.92
2019-04-28T23:17:33.491Z,9.47
2019-04-28T23:20:10.496Z,9.78
2019-04-28T23:22:47.044Z,9.88
2019-04-28T23:25:19.601Z,9.88
2019-04-28T23:27:53.304Z,9.91
2019-04-28T23:30:34.679Z,9.91
2019-04-28T23:33:08.396Z,9.85
2019-04-28T23:35:42.113Z,9.54
2019-04-28T23:38:15.889Z,9.73
2019-04-28T23:40:49.611Z,9.86
2019-04-28T23:43:23.304Z,9.86
2019-04-28T23:45:57.015Z,9.90
2019-04-28T23:48:30.707Z,9.75
2019-04-28T23:51:04.435Z,9.02
2019-04-28T23:53:38.134Z,9.23
2019-04-28T23:56:11.842Z,9.53
2019-04-28T23:58:45.548Z,9.53
